sensor_id;sensor_type;location;lat;lon;timestamp;P1;P2;P0
75187;PMS7003;63762;51.334;22.108;2023-02-15T00:02:22;5;1;1
75187;PMS7003;63762;51.334;22.108;2023-02-15T00:12:29;3;1;1
75187;PMS7003;63762;51.334;22.108;2023-02-15T00:22:36;1;1;0
75187;PMS7003;63762;51.334;22.108;2023-02-15T00:32:43;2;1;0
75187;PMS7003;63762;51.334;22.108;2023-02-15T00:42:51;2;2;1
75187;PMS7003;63762;51.334;22.108;2023-02-15T00:52:57;5;3;0
75187;PMS7003;63762;51.334;22.108;2023-02-15T01:03:05;5;3;2
75187;PMS7003;63762;51.334;22.108;2023-02-15T01:13:12;2;1;0
75187;PMS7003;63762;51.334;22.108;2023-02-15T01:23:19;3;0;0
75187;PMS7003;63762;51.334;22.108;2023-02-15T01:33:26;1;1;1
75187;PMS7003;63762;51.334;22.108;2023-02-15T01:53:42;2;1;1
75187;PMS7003;63762;51.334;22.108;2023-02-15T02:14:04;5;1;0
75187;PMS7003;63762;51.334;22.108;2023-02-15T02:54:45;2;1;1
75187;PMS7003;63762;51.334;22.108;2023-02-15T03:04:47;3;3;2
75187;PMS7003;63762;51.334;22.108;2023-02-15T03:15:06;5;1;1
75187;PMS7003;63762;51.334;22.108;2023-02-15T03:25:13;4;1;0
75187;PMS7003;63762;51.334;22.108;2023-02-15T03:35:21;2;2;1
75187;PMS7003;63762;51.334;22.108;2023-02-15T03:45:27;2;1;0
75187;PMS7003;63762;51.334;22.108;2023-02-15T03:55:33;6;1;1
75187;PMS7003;63762;51.334;22.108;2023-02-15T04:05:35;6;2;1
75187;PMS7003;63762;51.334;22.108;2023-02-15T04:15:36;1;0;0
75187;PMS7003;63762;51.334;22.108;2023-02-15T04:25:49;3;3;1
75187;PMS7003;63762;51.334;22.108;2023-02-15T04:35:50;1;1;0
75187;PMS7003;63762;51.334;22.108;2023-02-15T04:45:51;0;0;0
75187;PMS7003;63762;51.334;22.108;2023-02-15T04:55:52;4;2;1
75187;PMS7003;63762;51.334;22.108;2023-02-15T05:05:56;1;1;1
75187;PMS7003;63762;51.334;22.108;2023-02-15T05:16:03;4;1;1
75187;PMS7003;63762;51.334;22.108;2023-02-15T05:26:15;1;1;0
75187;PMS7003;63762;51.334;22.108;2023-02-15T05:36:30;0;0;0
75187;PMS7003;63762;51.334;22.108;2023-02-15T05:46:32;2;0;0
75187;PMS7003;63762;51.334;22.108;2023-02-15T05:56:33;1;0;0
75187;PMS7003;63762;51.334;22.108;2023-02-15T06:06:39;2;1;1
75187;PMS7003;63762;51.334;22.108;2023-02-15T06:16:46;2;2;1
75187;PMS7003;63762;51.334;22.108;2023-02-15T06:26:53;2;2;1
75187;PMS7003;63762;51.334;22.108;2023-02-15T06:37:00;8;3;0
75187;PMS7003;63762;51.334;22.108;2023-02-15T06:47:08;1;1;1
75187;PMS7003;63762;51.334;22.108;2023-02-15T06:57:14;1;1;0
75187;PMS7003;63762;51.334;22.108;2023-02-15T07:07:21;6;0;0
75187;PMS7003;63762;51.334;22.108;2023-02-15T07:17:29;4;1;0
75187;PMS7003;63762;51.334;22.108;2023-02-15T07:27:36;1;1;0
75187;PMS7003;63762;51.334;22.108;2023-02-15T07:37:43;5;3;1
75187;PMS7003;63762;51.334;22.108;2023-02-15T07:47:50;2;1;0
75187;PMS7003;63762;51.334;22.108;2023-02-15T07:57:57;0;0;0
75187;PMS7003;63762;51.334;22.108;2023-02-15T08:08:04;1;1;0
75187;PMS7003;63762;51.334;22.108;2023-02-15T08:18:11;0;0;0
75187;PMS7003;63762;51.334;22.108;2023-02-15T08:28:19;0;0;0
75187;PMS7003;63762;51.334;22.108;2023-02-15T08:38:26;1;0;0
75187;PMS7003;63762;51.334;22.108;2023-02-15T08:48:33;1;0;0
75187;PMS7003;63762;51.334;22.108;2023-02-15T08:58:40;2;0;0
75187;PMS7003;63762;51.334;22.108;2023-02-15T09:08:47;3;1;0
75187;PMS7003;63762;51.334;22.108;2023-02-15T09:18:54;0;0;0
75187;PMS7003;63762;51.334;22.108;2023-02-15T09:29:01;0;0;0
75187;PMS7003;63762;51.334;22.108;2023-02-15T09:39:10;0;0;0
75187;PMS7003;63762;51.334;22.108;2023-02-15T10:09:44;0;0;0
75187;PMS7003;63762;51.334;22.108;2023-02-15T10:20:00;0;0;0
75187;PMS7003;63762;51.334;22.108;2023-02-15T10:30:12;0;0;0
75187;PMS7003;63762;51.334;22.108;2023-02-15T11:00:45;0;0;0
75187;PMS7003;63762;51.334;22.108;2023-02-15T11:11:01;3;2;0
75187;PMS7003;63762;51.334;22.108;2023-02-15T11:21:08;2;1;0
75187;PMS7003;63762;51.334;22.108;2023-02-15T11:33:35;1;0;0
75187;PMS7003;63762;51.334;22.108;2023-02-15T11:43:43;0;0;0
75187;PMS7003;63762;51.334;22.108;2023-02-15T11:53:50;1;1;0
75187;PMS7003;63762;51.334;22.108;2023-02-15T12:03:57;1;1;1
75187;PMS7003;63762;51.334;22.108;2023-02-15T12:14:05;0;0;0
75187;PMS7003;63762;51.334;22.108;2023-02-15T12:34:27;0;0;0
75187;PMS7003;63762;51.334;22.108;2023-02-15T12:44:35;3;0;0
75187;PMS7003;63762;51.334;22.108;2023-02-15T12:54:41;1;0;0
75187;PMS7003;63762;51.334;22.108;2023-02-15T13:04:47;2;0;0
75187;PMS7003;63762;51.334;22.108;2023-02-15T13:14:50;5;5;3
75187;PMS7003;63762;51.334;22.108;2023-02-15T13:24:58;0;0;0
75187;PMS7003;63762;51.334;22.108;2023-02-15T13:35:04;2;1;0
75187;PMS7003;63762;51.334;22.108;2023-02-15T14:05:40;2;1;1
75187;PMS7003;63762;51.334;22.108;2023-02-15T14:15:53;6;1;1
75187;PMS7003;63762;51.334;22.108;2023-02-15T14:26:11;0;0;0
75187;PMS7003;63762;51.334;22.108;2023-02-15T14:36:15;1;0;0
75187;PMS7003;63762;51.334;22.108;2023-02-15T14:56:32;0;0;0
75187;PMS7003;63762;51.334;22.108;2023-02-15T15:06:34;1;1;0
75187;PMS7003;63762;51.334;22.108;2023-02-15T15:16:47;0;0;0
75187;PMS7003;63762;51.334;22.108;2023-02-15T15:26:49;0;0;0
75187;PMS7003;63762;51.334;22.108;2023-02-15T15:57:31;3;1;1
75187;PMS7003;63762;51.334;22.108;2023-02-15T16:07:35;3;2;2
75187;PMS7003;63762;51.334;22.108;2023-02-15T16:17:36;3;3;0
75187;PMS7003;63762;51.334;22.108;2023-02-15T16:27:38;4;3;1
75187;PMS7003;63762;51.334;22.108;2023-02-15T16:37:44;5;4;4
75187;PMS7003;63762;51.334;22.108;2023-02-15T16:47:46;9;5;1
75187;PMS7003;63762;51.334;22.108;2023-02-15T16:57:51;4;4;3
75187;PMS7003;63762;51.334;22.108;2023-02-15T17:18:18;1;1;1
75187;PMS7003;63762;51.334;22.108;2023-02-15T17:28:23;2;2;1
75187;PMS7003;63762;51.334;22.108;2023-02-15T17:38:28;2;1;1
75187;PMS7003;63762;51.334;22.108;2023-02-15T17:48:33;3;2;2
75187;PMS7003;63762;51.334;22.108;2023-02-15T17:58:36;6;6;2
75187;PMS7003;63762;51.334;22.108;2023-02-15T18:08:39;5;4;2
75187;PMS7003;63762;51.334;22.108;2023-02-15T18:18:52;9;3;2
75187;PMS7003;63762;51.334;22.108;2023-02-15T18:28:53;5;5;3
75187;PMS7003;63762;51.334;22.108;2023-02-15T18:38:55;7;6;4
75187;PMS7003;63762;51.334;22.108;2023-02-15T18:48:57;2;2;1
75187;PMS7003;63762;51.334;22.108;2023-02-15T18:58:58;7;7;5
75187;PMS7003;63762;51.334;22.108;2023-02-15T19:08:59;9;6;2
75187;PMS7003;63762;51.334;22.108;2023-02-15T19:19:02;15;10;4
75187;PMS7003;63762;51.334;22.108;2023-02-15T19:29:09;19;15;6
75187;PMS7003;63762;51.334;22.108;2023-02-15T19:39:26;19;14;5
75187;PMS7003;63762;51.334;22.108;2023-02-15T19:49:25;9;7;2
75187;PMS7003;63762;51.334;22.108;2023-02-15T19:59:31;7;5;2
75187;PMS7003;63762;51.334;22.108;2023-02-15T20:09:37;17;12;5
75187;PMS7003;63762;51.334;22.108;2023-02-15T20:19:44;19;15;5
75187;PMS7003;63762;51.334;22.108;2023-02-15T20:29:52;12;11;7
75187;PMS7003;63762;51.334;22.108;2023-02-15T20:39:59;10;9;5
75187;PMS7003;63762;51.334;22.108;2023-02-15T20:50:06;5;5;3
75187;PMS7003;63762;51.334;22.108;2023-02-15T21:00:17;9;6;3
75187;PMS7003;63762;51.334;22.108;2023-02-15T21:10:21;11;7;4
75187;PMS7003;63762;51.334;22.108;2023-02-15T21:20:28;6;3;1
75187;PMS7003;63762;51.334;22.108;2023-02-15T21:30:34;4;4;1
75187;PMS7003;63762;51.334;22.108;2023-02-15T21:40:42;4;3;2
75187;PMS7003;63762;51.334;22.108;2023-02-15T21:50:49;7;4;3
75187;PMS7003;63762;51.334;22.108;2023-02-15T22:01:02;2;2;2
75187;PMS7003;63762;51.334;22.108;2023-02-15T22:11:07;2;2;2
75187;PMS7003;63762;51.334;22.108;2023-02-15T22:21:12;5;3;2
75187;PMS7003;63762;51.334;22.108;2023-02-15T22:31:18;0;0;0
75187;PMS7003;63762;51.334;22.108;2023-02-15T22:41:26;0;0;0
75187;PMS7003;63762;51.334;22.108;2023-02-15T22:51:32;5;5;3
75187;PMS7003;63762;51.334;22.108;2023-02-15T23:01:39;6;6;3
75187;PMS7003;63762;51.334;22.108;2023-02-15T23:11:47;2;2;1
75187;PMS7003;63762;51.334;22.108;2023-02-15T23:21:53;3;3;2
75187;PMS7003;63762;51.334;22.108;2023-02-15T23:32:00;4;1;0
75187;PMS7003;63762;51.334;22.108;2023-02-15T23:42:11;5;4;2
75187;PMS7003;63762;51.334;22.108;2023-02-15T23:52:19;2;1;0
